sensor_id;sensor_type;location;lat;lon;timestamp;P1;durP1;ratioP1;P2;durP2;ratioP2
11024;SDS011;22890;51.820;8.682;2023-08-31T00:01:17;15.37;;;10.80;;
11024;SDS011;22890;51.820;8.682;2023-08-31T00:03:44;19.83;;;10.40;;
11024;SDS011;22890;51.820;8.682;2023-08-31T00:06:12;15.40;;;10.83;;
11024;SDS011;22890;51.820;8.682;2023-08-31T00:08:39;13.87;;;10.40;;
11024;SDS011;22890;51.820;8.682;2023-08-31T00:11:06;17.50;;;10.23;;
11024;SDS011;22890;51.820;8.682;2023-08-31T00:13:33;16.77;;;11.00;;
11024;SDS011;22890;51.820;8.682;2023-08-31T00:16:00;14.33;;;10.37;;
11024;SDS011;22890;51.820;8.682;2023-08-31T00:18:27;13.27;;;10.70;;
11024;SDS011;22890;51.820;8.682;2023-08-31T00:20:54;17.03;;;10.80;;
11024;SDS011;22890;51.820;8.682;2023-08-31T00:23:21;14.77;;;10.10;;
11024;SDS011;22890;51.820;8.682;2023-08-31T00:25:49;15.30;;;9.90;;
11024;SDS011;22890;51.820;8.682;2023-08-31T00:28:18;15.33;;;10.63;;
11024;SDS011;22890;51.820;8.682;2023-08-31T00:30:45;13.00;;;9.30;;
11024;SDS011;22890;51.820;8.682;2023-08-31T00:33:13;15.63;;;10.47;;
11024;SDS011;22890;51.820;8.682;2023-08-31T00:35:41;18.80;;;10.13;;
11024;SDS011;22890;51.820;8.682;2023-08-31T00:38:13;17.67;;;9.80;;
11024;SDS011;22890;51.820;8.682;2023-08-31T00:40:43;13.50;;;10.23;;
11024;SDS011;22890;51.820;8.682;2023-08-31T00:43:13;16.50;;;10.33;;
11024;SDS011;22890;51.820;8.682;2023-08-31T00:45:42;14.47;;;10.30;;
11024;SDS011;22890;51.820;8.682;2023-08-31T00:48:11;17.47;;;10.00;;
11024;SDS011;22890;51.820;8.682;2023-08-31T00:50:40;14.27;;;9.80;;
11024;SDS011;22890;51.820;8.682;2023-08-31T00:53:07;14.40;;;9.60;;
11024;SDS011;22890;51.820;8.682;2023-08-31T00:55:35;20.63;;;10.17;;
11024;SDS011;22890;51.820;8.682;2023-08-31T00:58:04;18.67;;;10.77;;
11024;SDS011;22890;51.820;8.682;2023-08-31T01:00:43;19.27;;;10.57;;
11024;SDS011;22890;51.820;8.682;2023-08-31T01:03:42;15.30;;;10.33;;
11024;SDS011;22890;51.820;8.682;2023-08-31T01:12:09;16.80;;;10.63;;
11024;SDS011;22890;51.820;8.682;2023-08-31T01:14:47;13.03;;;10.37;;
11024;SDS011;22890;51.820;8.682;2023-08-31T01:17:20;21.53;;;11.87;;
11024;SDS011;22890;51.820;8.682;2023-08-31T01:19:51;21.43;;;13.10;;
11024;SDS011;22890;51.820;8.682;2023-08-31T01:22:39;17.20;;;11.37;;
11024;SDS011;22890;51.820;8.682;2023-08-31T01:25:13;21.27;;;10.50;;
11024;SDS011;22890;51.820;8.682;2023-08-31T01:27:40;17.27;;;11.50;;
11024;SDS011;22890;51.820;8.682;2023-08-31T01:30:07;15.50;;;10.63;;
11024;SDS011;22890;51.820;8.682;2023-08-31T01:32:34;16.97;;;11.03;;
11024;SDS011;22890;51.820;8.682;2023-08-31T01:35:02;17.50;;;11.27;;
11024;SDS011;22890;51.820;8.682;2023-08-31T01:37:47;21.73;;;11.10;;
11024;SDS011;22890;51.820;8.682;2023-08-31T01:40:38;17.73;;;11.20;;
11024;SDS011;22890;51.820;8.682;2023-08-31T01:43:12;16.33;;;10.30;;
11024;SDS011;22890;51.820;8.682;2023-08-31T01:45:40;16.03;;;10.97;;
11024;SDS011;22890;51.820;8.682;2023-08-31T01:48:10;16.30;;;10.50;;
11024;SDS011;22890;51.820;8.682;2023-08-31T01:50:38;16.67;;;11.47;;
11024;SDS011;22890;51.820;8.682;2023-08-31T01:53:05;14.27;;;10.00;;
11024;SDS011;22890;51.820;8.682;2023-08-31T01:55:33;18.90;;;11.43;;
11024;SDS011;22890;51.820;8.682;2023-08-31T01:58:00;21.90;;;11.87;;
11024;SDS011;22890;51.820;8.682;2023-08-31T02:00:28;23.83;;;12.93;;
11024;SDS011;22890;51.820;8.682;2023-08-31T02:02:55;18.37;;;11.77;;
11024;SDS011;22890;51.820;8.682;2023-08-31T02:05:22;16.37;;;11.27;;
11024;SDS011;22890;51.820;8.682;2023-08-31T02:07:51;21.27;;;13.57;;
11024;SDS011;22890;51.820;8.682;2023-08-31T02:10:19;17.77;;;12.70;;
11024;SDS011;22890;51.820;8.682;2023-08-31T02:12:46;19.47;;;11.97;;
11024;SDS011;22890;51.820;8.682;2023-08-31T02:15:13;20.53;;;11.23;;
11024;SDS011;22890;51.820;8.682;2023-08-31T02:17:40;21.20;;;12.10;;
11024;SDS011;22890;51.820;8.682;2023-08-31T02:20:09;18.27;;;10.43;;
11024;SDS011;22890;51.820;8.682;2023-08-31T02:22:36;17.70;;;11.27;;
11024;SDS011;22890;51.820;8.682;2023-08-31T02:25:05;24.87;;;12.17;;
11024;SDS011;22890;51.820;8.682;2023-08-31T02:27:32;14.90;;;11.13;;
11024;SDS011;22890;51.820;8.682;2023-08-31T02:29:59;17.20;;;11.07;;
11024;SDS011;22890;51.820;8.682;2023-08-31T02:32:27;14.93;;;10.27;;
11024;SDS011;22890;51.820;8.682;2023-08-31T02:34:54;17.87;;;11.03;;
11024;SDS011;22890;51.820;8.682;2023-08-31T02:37:21;16.50;;;10.93;;
11024;SDS011;22890;51.820;8.682;2023-08-31T02:39:49;18.30;;;12.00;;
11024;SDS011;22890;51.820;8.682;2023-08-31T02:42:16;23.10;;;11.10;;
11024;SDS011;22890;51.820;8.682;2023-08-31T02:44:44;19.03;;;12.03;;
11024;SDS011;22890;51.820;8.682;2023-08-31T02:47:12;17.83;;;11.70;;
11024;SDS011;22890;51.820;8.682;2023-08-31T02:49:39;18.60;;;11.87;;
11024;SDS011;22890;51.820;8.682;2023-08-31T02:52:06;24.90;;;11.87;;
11024;SDS011;22890;51.820;8.682;2023-08-31T02:54:33;18.23;;;10.70;;
11024;SDS011;22890;51.820;8.682;2023-08-31T02:57:00;18.13;;;11.60;;
11024;SDS011;22890;51.820;8.682;2023-08-31T02:59:28;19.37;;;11.03;;
11024;SDS011;22890;51.820;8.682;2023-08-31T03:01:55;21.07;;;11.20;;
11024;SDS011;22890;51.820;8.682;2023-08-31T03:04:23;17.00;;;11.00;;
11024;SDS011;22890;51.820;8.682;2023-08-31T03:06:50;20.60;;;11.63;;
11024;SDS011;22890;51.820;8.682;2023-08-31T03:09:17;18.67;;;10.60;;
11024;SDS011;22890;51.820;8.682;2023-08-31T03:11:46;14.73;;;9.83;;
11024;SDS011;22890;51.820;8.682;2023-08-31T03:14:13;16.37;;;10.73;;
11024;SDS011;22890;51.820;8.682;2023-08-31T03:16:40;15.57;;;10.00;;
11024;SDS011;22890;51.820;8.682;2023-08-31T03:19:08;14.63;;;9.97;;
11024;SDS011;22890;51.820;8.682;2023-08-31T03:21:36;18.27;;;9.40;;
11024;SDS011;22890;51.820;8.682;2023-08-31T03:24:02;13.33;;;8.47;;
11024;SDS011;22890;51.820;8.682;2023-08-31T03:26:30;13.30;;;7.93;;
11024;SDS011;22890;51.820;8.682;2023-08-31T03:28:57;9.63;;;7.60;;
11024;SDS011;22890;51.820;8.682;2023-08-31T03:31:24;11.13;;;7.67;;
11024;SDS011;22890;51.820;8.682;2023-08-31T03:33:51;12.90;;;8.07;;
11024;SDS011;22890;51.820;8.682;2023-08-31T03:36:18;10.53;;;8.10;;
11024;SDS011;22890;51.820;8.682;2023-08-31T03:38:46;9.50;;;7.27;;
11024;SDS011;22890;51.820;8.682;2023-08-31T03:41:12;11.07;;;6.87;;
11024;SDS011;22890;51.820;8.682;2023-08-31T03:43:40;7.93;;;6.53;;
11024;SDS011;22890;51.820;8.682;2023-08-31T03:46:06;9.83;;;6.97;;
11024;SDS011;22890;51.820;8.682;2023-08-31T03:48:33;9.50;;;7.27;;
11024;SDS011;22890;51.820;8.682;2023-08-31T03:51:00;9.67;;;7.73;;
11024;SDS011;22890;51.820;8.682;2023-08-31T03:53:28;12.30;;;7.50;;
11024;SDS011;22890;51.820;8.682;2023-08-31T03:55:57;9.23;;;6.60;;
11024;SDS011;22890;51.820;8.682;2023-08-31T03:58:24;9.77;;;6.47;;
11024;SDS011;22890;51.820;8.682;2023-08-31T04:00:53;13.10;;;7.73;;
11024;SDS011;22890;51.820;8.682;2023-08-31T04:03:20;13.77;;;7.87;;
11024;SDS011;22890;51.820;8.682;2023-08-31T04:05:48;10.83;;;6.83;;
11024;SDS011;22890;51.820;8.682;2023-08-31T04:08:15;12.10;;;7.10;;
11024;SDS011;22890;51.820;8.682;2023-08-31T04:10:43;11.37;;;7.17;;
11024;SDS011;22890;51.820;8.682;2023-08-31T04:13:10;9.37;;;7.20;;
11024;SDS011;22890;51.820;8.682;2023-08-31T04:15:37;13.67;;;7.43;;
11024;SDS011;22890;51.820;8.682;2023-08-31T04:18:05;13.93;;;8.00;;
11024;SDS011;22890;51.820;8.682;2023-08-31T04:20:32;10.97;;;7.23;;
11024;SDS011;22890;51.820;8.682;2023-08-31T04:22:59;11.73;;;7.70;;
11024;SDS011;22890;51.820;8.682;2023-08-31T04:25:28;10.63;;;7.33;;
11024;SDS011;22890;51.820;8.682;2023-08-31T04:27:56;8.70;;;6.80;;
11024;SDS011;22890;51.820;8.682;2023-08-31T04:30:24;15.33;;;8.50;;
11024;SDS011;22890;51.820;8.682;2023-08-31T04:32:52;10.90;;;6.77;;
11024;SDS011;22890;51.820;8.682;2023-08-31T04:35:20;9.77;;;7.50;;
11024;SDS011;22890;51.820;8.682;2023-08-31T04:37:47;10.13;;;7.10;;
11024;SDS011;22890;51.820;8.682;2023-08-31T04:40:14;11.70;;;7.13;;
11024;SDS011;22890;51.820;8.682;2023-08-31T04:42:42;10.43;;;7.03;;
11024;SDS011;22890;51.820;8.682;2023-08-31T04:45:09;16.47;;;7.97;;
11024;SDS011;22890;51.820;8.682;2023-08-31T04:47:37;13.00;;;7.67;;
11024;SDS011;22890;51.820;8.682;2023-08-31T04:50:04;14.47;;;8.17;;
11024;SDS011;22890;51.820;8.682;2023-08-31T04:52:32;9.00;;;6.77;;
11024;SDS011;22890;51.820;8.682;2023-08-31T04:55:00;14.63;;;7.77;;
11024;SDS011;22890;51.820;8.682;2023-08-31T04:57:27;11.53;;;7.93;;
11024;SDS011;22890;51.820;8.682;2023-08-31T04:59:54;11.50;;;6.63;;
11024;SDS011;22890;51.820;8.682;2023-08-31T05:02:22;11.80;;;7.53;;
11024;SDS011;22890;51.820;8.682;2023-08-31T05:04:49;9.23;;;7.20;;
11024;SDS011;22890;51.820;8.682;2023-08-31T05:07:16;15.00;;;7.63;;
11024;SDS011;22890;51.820;8.682;2023-08-31T05:09:43;10.83;;;7.20;;
11024;SDS011;22890;51.820;8.682;2023-08-31T05:12:10;12.50;;;7.20;;
11024;SDS011;22890;51.820;8.682;2023-08-31T05:14:38;17.93;;;8.00;;
11024;SDS011;22890;51.820;8.682;2023-08-31T05:17:06;9.30;;;8.13;;
11024;SDS011;22890;51.820;8.682;2023-08-31T05:19:33;11.93;;;7.13;;
11024;SDS011;22890;51.820;8.682;2023-08-31T05:22:00;11.30;;;8.00;;
11024;SDS011;22890;51.820;8.682;2023-08-31T05:24:27;13.03;;;7.37;;
11024;SDS011;22890;51.820;8.682;2023-08-31T05:26:54;14.77;;;7.80;;
11024;SDS011;22890;51.820;8.682;2023-08-31T05:29:21;8.97;;;6.90;;
11024;SDS011;22890;51.820;8.682;2023-08-31T05:31:48;10.60;;;7.20;;
11024;SDS011;22890;51.820;8.682;2023-08-31T05:34:20;9.83;;;8.03;;
11024;SDS011;22890;51.820;8.682;2023-08-31T05:36:47;10.60;;;7.97;;
11024;SDS011;22890;51.820;8.682;2023-08-31T05:39:14;13.73;;;8.60;;
11024;SDS011;22890;51.820;8.682;2023-08-31T05:41:44;12.70;;;8.90;;
11024;SDS011;22890;51.820;8.682;2023-08-31T05:44:11;13.67;;;9.17;;
11024;SDS011;22890;51.820;8.682;2023-08-31T05:46:39;12.83;;;9.00;;
11024;SDS011;22890;51.820;8.682;2023-08-31T05:49:07;11.43;;;9.40;;
11024;SDS011;22890;51.820;8.682;2023-08-31T05:51:34;14.07;;;9.07;;
11024;SDS011;22890;51.820;8.682;2023-08-31T05:54:02;12.67;;;8.80;;
11024;SDS011;22890;51.820;8.682;2023-08-31T05:56:29;15.87;;;9.50;;
11024;SDS011;22890;51.820;8.682;2023-08-31T05:58:56;15.70;;;9.47;;
11024;SDS011;22890;51.820;8.682;2023-08-31T06:01:23;12.90;;;8.97;;
11024;SDS011;22890;51.820;8.682;2023-08-31T06:03:50;14.73;;;10.20;;
11024;SDS011;22890;51.820;8.682;2023-08-31T06:06:18;11.47;;;8.63;;
11024;SDS011;22890;51.820;8.682;2023-08-31T06:08:45;12.60;;;9.60;;
11024;SDS011;22890;51.820;8.682;2023-08-31T06:11:12;13.77;;;9.30;;
11024;SDS011;22890;51.820;8.682;2023-08-31T06:13:40;12.40;;;9.00;;
11024;SDS011;22890;51.820;8.682;2023-08-31T06:16:07;12.80;;;9.60;;
11024;SDS011;22890;51.820;8.682;2023-08-31T06:18:34;13.67;;;9.57;;
11024;SDS011;22890;51.820;8.682;2023-08-31T06:21:01;11.17;;;9.97;;
11024;SDS011;22890;51.820;8.682;2023-08-31T06:23:28;14.13;;;9.03;;
11024;SDS011;22890;51.820;8.682;2023-08-31T06:25:55;9.73;;;8.40;;
11024;SDS011;22890;51.820;8.682;2023-08-31T06:28:22;12.57;;;9.57;;
11024;SDS011;22890;51.820;8.682;2023-08-31T06:30:49;12.70;;;8.70;;
11024;SDS011;22890;51.820;8.682;2023-08-31T06:33:17;8.97;;;8.07;;
11024;SDS011;22890;51.820;8.682;2023-08-31T06:35:46;11.93;;;9.03;;
11024;SDS011;22890;51.820;8.682;2023-08-31T06:38:18;13.10;;;9.07;;
11024;SDS011;22890;51.820;8.682;2023-08-31T06:40:46;8.47;;;7.67;;
11024;SDS011;22890;51.820;8.682;2023-08-31T06:43:13;16.27;;;9.10;;
11024;SDS011;22890;51.820;8.682;2023-08-31T06:45:40;13.00;;;8.87;;
11024;SDS011;22890;51.820;8.682;2023-08-31T06:48:08;10.27;;;8.20;;
11024;SDS011;22890;51.820;8.682;2023-08-31T06:50:35;12.23;;;8.67;;
11024;SDS011;22890;51.820;8.682;2023-08-31T06:53:02;10.87;;;8.77;;
11024;SDS011;22890;51.820;8.682;2023-08-31T06:55:30;10.70;;;7.97;;
11024;SDS011;22890;51.820;8.682;2023-08-31T06:57:58;11.03;;;8.13;;
11024;SDS011;22890;51.820;8.682;2023-08-31T07:00:25;15.40;;;8.53;;
11024;SDS011;22890;51.820;8.682;2023-08-31T07:02:52;11.20;;;8.77;;
11024;SDS011;22890;51.820;8.682;2023-08-31T07:05:24;13.00;;;8.27;;
11024;SDS011;22890;51.820;8.682;2023-08-31T07:07:52;14.03;;;8.70;;
11024;SDS011;22890;51.820;8.682;2023-08-31T07:10:20;10.60;;;8.77;;
11024;SDS011;22890;51.820;8.682;2023-08-31T07:12:48;9.23;;;7.77;;
11024;SDS011;22890;51.820;8.682;2023-08-31T07:15:15;9.77;;;8.43;;
11024;SDS011;22890;51.820;8.682;2023-08-31T07:17:42;11.80;;;8.53;;
11024;SDS011;22890;51.820;8.682;2023-08-31T07:20:09;9.27;;;8.00;;
11024;SDS011;22890;51.820;8.682;2023-08-31T07:22:37;11.83;;;8.03;;
11024;SDS011;22890;51.820;8.682;2023-08-31T07:25:06;9.40;;;7.73;;
11024;SDS011;22890;51.820;8.682;2023-08-31T07:27:33;9.27;;;8.03;;
11024;SDS011;22890;51.820;8.682;2023-08-31T07:30:00;8.63;;;7.40;;
11024;SDS011;22890;51.820;8.682;2023-08-31T07:32:29;11.23;;;7.73;;
11024;SDS011;22890;51.820;8.682;2023-08-31T07:34:56;9.10;;;8.20;;
11024;SDS011;22890;51.820;8.682;2023-08-31T07:37:23;9.77;;;8.30;;
11024;SDS011;22890;51.820;8.682;2023-08-31T07:39:50;7.67;;;6.87;;
11024;SDS011;22890;51.820;8.682;2023-08-31T07:42:17;9.03;;;7.20;;
11024;SDS011;22890;51.820;8.682;2023-08-31T07:44:44;9.63;;;6.37;;
11024;SDS011;22890;51.820;8.682;2023-08-31T07:47:11;7.53;;;6.40;;
11024;SDS011;22890;51.820;8.682;2023-08-31T07:49:38;7.80;;;6.23;;
11024;SDS011;22890;51.820;8.682;2023-08-31T07:52:05;8.50;;;6.50;;
11024;SDS011;22890;51.820;8.682;2023-08-31T07:54:33;8.10;;;6.47;;
11024;SDS011;22890;51.820;8.682;2023-08-31T07:57:00;7.57;;;6.37;;
11024;SDS011;22890;51.820;8.682;2023-08-31T07:59:27;7.27;;;5.23;;
11024;SDS011;22890;51.820;8.682;2023-08-31T08:01:54;7.30;;;5.80;;
11024;SDS011;22890;51.820;8.682;2023-08-31T08:04:22;6.80;;;5.63;;
11024;SDS011;22890;51.820;8.682;2023-08-31T08:06:49;6.10;;;5.50;;
11024;SDS011;22890;51.820;8.682;2023-08-31T08:09:17;7.13;;;5.40;;
11024;SDS011;22890;51.820;8.682;2023-08-31T08:11:44;7.10;;;5.67;;
11024;SDS011;22890;51.820;8.682;2023-08-31T08:14:11;7.87;;;5.83;;
11024;SDS011;22890;51.820;8.682;2023-08-31T08:16:38;10.27;;;5.40;;
11024;SDS011;22890;51.820;8.682;2023-08-31T08:19:05;6.57;;;5.90;;
11024;SDS011;22890;51.820;8.682;2023-08-31T08:21:32;7.53;;;6.40;;
11024;SDS011;22890;51.820;8.682;2023-08-31T08:23:59;9.37;;;7.10;;
11024;SDS011;22890;51.820;8.682;2023-08-31T08:26:27;7.37;;;6.57;;
11024;SDS011;22890;51.820;8.682;2023-08-31T08:28:54;7.77;;;6.67;;
11024;SDS011;22890;51.820;8.682;2023-08-31T08:31:21;9.37;;;6.83;;
11024;SDS011;22890;51.820;8.682;2023-08-31T08:33:51;9.10;;;6.37;;
11024;SDS011;22890;51.820;8.682;2023-08-31T08:36:18;9.53;;;6.77;;
11024;SDS011;22890;51.820;8.682;2023-08-31T08:38:45;7.07;;;6.37;;
11024;SDS011;22890;51.820;8.682;2023-08-31T08:41:12;6.27;;;5.67;;
11024;SDS011;22890;51.820;8.682;2023-08-31T08:43:41;8.80;;;5.77;;
11024;SDS011;22890;51.820;8.682;2023-08-31T08:46:10;6.30;;;5.20;;
11024;SDS011;22890;51.820;8.682;2023-08-31T08:48:37;8.93;;;6.10;;
11024;SDS011;22890;51.820;8.682;2023-08-31T08:51:05;8.43;;;6.07;;
11024;SDS011;22890;51.820;8.682;2023-08-31T08:53:33;6.30;;;5.27;;
11024;SDS011;22890;51.820;8.682;2023-08-31T08:56:00;7.87;;;5.20;;
11024;SDS011;22890;51.820;8.682;2023-08-31T08:58:28;6.30;;;5.67;;
11024;SDS011;22890;51.820;8.682;2023-08-31T09:00:55;7.37;;;5.97;;
11024;SDS011;22890;51.820;8.682;2023-08-31T09:03:23;6.13;;;5.40;;
11024;SDS011;22890;51.820;8.682;2023-08-31T09:05:50;7.20;;;6.00;;
11024;SDS011;22890;51.820;8.682;2023-08-31T09:08:20;7.43;;;6.13;;
11024;SDS011;22890;51.820;8.682;2023-08-31T09:10:52;7.73;;;6.23;;
11024;SDS011;22890;51.820;8.682;2023-08-31T09:13:21;6.77;;;6.03;;
11024;SDS011;22890;51.820;8.682;2023-08-31T09:15:56;9.17;;;6.23;;
11024;SDS011;22890;51.820;8.682;2023-08-31T09:20:51;9.30;;;6.40;;
11024;SDS011;22890;51.820;8.682;2023-08-31T09:23:19;6.57;;;5.97;;
11024;SDS011;22890;51.820;8.682;2023-08-31T09:25:47;14.67;;;7.60;;
11024;SDS011;22890;51.820;8.682;2023-08-31T09:28:25;9.53;;;6.77;;
11024;SDS011;22890;51.820;8.682;2023-08-31T09:31:03;9.83;;;8.07;;
11024;SDS011;22890;51.820;8.682;2023-08-31T09:33:32;9.23;;;7.57;;
11024;SDS011;22890;51.820;8.682;2023-08-31T09:36:02;7.87;;;7.17;;
11024;SDS011;22890;51.820;8.682;2023-08-31T09:38:30;10.27;;;7.70;;
11024;SDS011;22890;51.820;8.682;2023-08-31T09:41:04;8.50;;;7.70;;
11024;SDS011;22890;51.820;8.682;2023-08-31T09:43:34;11.20;;;8.07;;
11024;SDS011;22890;51.820;8.682;2023-08-31T09:46:03;9.37;;;8.00;;
11024;SDS011;22890;51.820;8.682;2023-08-31T09:48:30;10.27;;;8.17;;
11024;SDS011;22890;51.820;8.682;2023-08-31T09:50:58;7.77;;;6.97;;
11024;SDS011;22890;51.820;8.682;2023-08-31T09:53:31;11.03;;;7.17;;
11024;SDS011;22890;51.820;8.682;2023-08-31T09:55:58;8.73;;;7.93;;
11024;SDS011;22890;51.820;8.682;2023-08-31T09:58:26;10.33;;;7.93;;
11024;SDS011;22890;51.820;8.682;2023-08-31T10:00:57;12.37;;;7.27;;
11024;SDS011;22890;51.820;8.682;2023-08-31T10:03:26;8.10;;;7.00;;
11024;SDS011;22890;51.820;8.682;2023-08-31T10:05:53;9.53;;;7.10;;
11024;SDS011;22890;51.820;8.682;2023-08-31T10:08:21;6.13;;;5.53;;
11024;SDS011;22890;51.820;8.682;2023-08-31T10:10:48;7.93;;;6.13;;
11024;SDS011;22890;51.820;8.682;2023-08-31T10:13:15;6.83;;;5.43;;
11024;SDS011;22890;51.820;8.682;2023-08-31T10:15:43;6.77;;;5.20;;
11024;SDS011;22890;51.820;8.682;2023-08-31T10:18:10;8.50;;;5.13;;
11024;SDS011;22890;51.820;8.682;2023-08-31T10:20:37;7.13;;;4.83;;
11024;SDS011;22890;51.820;8.682;2023-08-31T10:23:09;8.47;;;3.87;;
11024;SDS011;22890;51.820;8.682;2023-08-31T10:25:59;4.77;;;4.00;;
11024;SDS011;22890;51.820;8.682;2023-08-31T10:28:27;7.90;;;3.70;;
11024;SDS011;22890;51.820;8.682;2023-08-31T10:33:35;6.60;;;3.07;;
11024;SDS011;22890;51.820;8.682;2023-08-31T10:36:10;5.00;;;2.77;;
11024;SDS011;22890;51.820;8.682;2023-08-31T10:38:42;4.83;;;2.87;;
11024;SDS011;22890;51.820;8.682;2023-08-31T10:41:34;6.17;;;3.13;;
11024;SDS011;22890;51.820;8.682;2023-08-31T10:44:20;4.23;;;3.77;;
11024;SDS011;22890;51.820;8.682;2023-08-31T10:46:49;4.77;;;3.03;;
11024;SDS011;22890;51.820;8.682;2023-08-31T10:49:18;4.60;;;2.77;;
11024;SDS011;22890;51.820;8.682;2023-08-31T10:51:48;2.87;;;2.53;;
11024;SDS011;22890;51.820;8.682;2023-08-31T10:54:19;7.97;;;3.40;;
11024;SDS011;22890;51.820;8.682;2023-08-31T10:59:41;2.97;;;2.20;;
11024;SDS011;22890;51.820;8.682;2023-08-31T11:07:30;4.93;;;2.70;;
11024;SDS011;22890;51.820;8.682;2023-08-31T11:12:54;7.30;;;2.60;;
11024;SDS011;22890;51.820;8.682;2023-08-31T11:15:24;4.50;;;2.43;;
11024;SDS011;22890;51.820;8.682;2023-08-31T11:17:53;3.70;;;2.17;;
11024;SDS011;22890;51.820;8.682;2023-08-31T11:20:23;2.87;;;2.27;;
11024;SDS011;22890;51.820;8.682;2023-08-31T11:22:54;5.00;;;2.33;;
11024;SDS011;22890;51.820;8.682;2023-08-31T11:25:22;4.70;;;1.87;;
11024;SDS011;22890;51.820;8.682;2023-08-31T11:27:59;2.50;;;1.93;;
11024;SDS011;22890;51.820;8.682;2023-08-31T11:30:32;3.43;;;2.37;;
11024;SDS011;22890;51.820;8.682;2023-08-31T11:33:03;4.40;;;1.87;;
11024;SDS011;22890;51.820;8.682;2023-08-31T11:35:38;3.63;;;1.70;;
11024;SDS011;22890;51.820;8.682;2023-08-31T11:38:07;3.23;;;1.47;;
11024;SDS011;22890;51.820;8.682;2023-08-31T11:40:35;2.50;;;1.40;;
11024;SDS011;22890;51.820;8.682;2023-08-31T11:43:04;3.60;;;1.20;;
11024;SDS011;22890;51.820;8.682;2023-08-31T11:45:33;2.63;;;1.17;;
11024;SDS011;22890;51.820;8.682;2023-08-31T11:48:02;2.83;;;1.03;;
11024;SDS011;22890;51.820;8.682;2023-08-31T11:50:29;2.17;;;1.20;;
11024;SDS011;22890;51.820;8.682;2023-08-31T11:52:57;2.63;;;1.60;;
11024;SDS011;22890;51.820;8.682;2023-08-31T11:55:24;1.97;;;1.70;;
11024;SDS011;22890;51.820;8.682;2023-08-31T11:57:51;5.73;;;2.00;;
11024;SDS011;22890;51.820;8.682;2023-08-31T12:00:21;4.77;;;2.20;;
11024;SDS011;22890;51.820;8.682;2023-08-31T12:02:58;4.27;;;2.43;;
11024;SDS011;22890;51.820;8.682;2023-08-31T12:05:26;3.60;;;2.50;;
11024;SDS011;22890;51.820;8.682;2023-08-31T12:07:54;3.57;;;2.57;;
11024;SDS011;22890;51.820;8.682;2023-08-31T12:10:23;4.97;;;2.30;;
11024;SDS011;22890;51.820;8.682;2023-08-31T12:12:50;2.87;;;2.20;;
11024;SDS011;22890;51.820;8.682;2023-08-31T12:15:19;2.53;;;1.90;;
11024;SDS011;22890;51.820;8.682;2023-08-31T12:17:49;1.50;;;1.20;;
11024;SDS011;22890;51.820;8.682;2023-08-31T12:20:24;1.93;;;1.17;;
11024;SDS011;22890;51.820;8.682;2023-08-31T12:22:55;2.70;;;1.00;;
11024;SDS011;22890;51.820;8.682;2023-08-31T12:25:22;1.73;;;1.07;;
11024;SDS011;22890;51.820;8.682;2023-08-31T12:27:50;1.90;;;0.90;;
11024;SDS011;22890;51.820;8.682;2023-08-31T12:30:17;3.03;;;1.50;;
11024;SDS011;22890;51.820;8.682;2023-08-31T12:32:44;1.93;;;1.10;;
11024;SDS011;22890;51.820;8.682;2023-08-31T12:35:11;1.97;;;1.30;;
11024;SDS011;22890;51.820;8.682;2023-08-31T12:37:40;1.97;;;1.33;;
11024;SDS011;22890;51.820;8.682;2023-08-31T12:40:07;3.10;;;1.50;;
11024;SDS011;22890;51.820;8.682;2023-08-31T12:42:36;2.67;;;1.50;;
11024;SDS011;22890;51.820;8.682;2023-08-31T12:45:03;2.50;;;1.50;;
11024;SDS011;22890;51.820;8.682;2023-08-31T12:47:34;1.50;;;1.40;;
11024;SDS011;22890;51.820;8.682;2023-08-31T12:50:01;1.50;;;1.40;;
11024;SDS011;22890;51.820;8.682;2023-08-31T12:52:29;2.53;;;1.50;;
11024;SDS011;22890;51.820;8.682;2023-08-31T12:54:56;1.70;;;1.60;;
11024;SDS011;22890;51.820;8.682;2023-08-31T12:57:23;2.10;;;1.60;;
11024;SDS011;22890;51.820;8.682;2023-08-31T12:59:50;3.30;;;1.77;;
11024;SDS011;22890;51.820;8.682;2023-08-31T13:02:18;1.80;;;1.50;;
11024;SDS011;22890;51.820;8.682;2023-08-31T13:04:46;2.40;;;1.40;;
11024;SDS011;22890;51.820;8.682;2023-08-31T13:07:13;1.97;;;1.60;;
11024;SDS011;22890;51.820;8.682;2023-08-31T13:09:40;2.13;;;1.90;;
11024;SDS011;22890;51.820;8.682;2023-08-31T13:12:07;3.07;;;1.70;;
11024;SDS011;22890;51.820;8.682;2023-08-31T13:14:35;3.23;;;1.53;;
11024;SDS011;22890;51.820;8.682;2023-08-31T13:17:02;1.90;;;1.80;;
11024;SDS011;22890;51.820;8.682;2023-08-31T13:19:30;2.37;;;1.60;;
11024;SDS011;22890;51.820;8.682;2023-08-31T13:21:56;7.13;;;2.57;;
11024;SDS011;22890;51.820;8.682;2023-08-31T13:24:23;4.97;;;2.10;;
11024;SDS011;22890;51.820;8.682;2023-08-31T13:26:51;5.60;;;1.80;;
11024;SDS011;22890;51.820;8.682;2023-08-31T13:29:18;2.37;;;1.80;;
11024;SDS011;22890;51.820;8.682;2023-08-31T13:31:45;3.20;;;1.97;;
11024;SDS011;22890;51.820;8.682;2023-08-31T13:34:12;3.43;;;1.70;;
11024;SDS011;22890;51.820;8.682;2023-08-31T13:36:41;3.37;;;1.73;;
11024;SDS011;22890;51.820;8.682;2023-08-31T13:39:08;3.00;;;1.70;;
11024;SDS011;22890;51.820;8.682;2023-08-31T13:41:36;2.07;;;1.60;;
11024;SDS011;22890;51.820;8.682;2023-08-31T13:44:03;1.40;;;1.30;;
11024;SDS011;22890;51.820;8.682;2023-08-31T13:46:30;3.27;;;1.40;;
11024;SDS011;22890;51.820;8.682;2023-08-31T13:48:58;2.37;;;1.40;;
11024;SDS011;22890;51.820;8.682;2023-08-31T13:51:25;4.87;;;1.93;;
11024;SDS011;22890;51.820;8.682;2023-08-31T13:53:52;5.93;;;2.00;;
11024;SDS011;22890;51.820;8.682;2023-08-31T13:56:19;2.30;;;1.80;;
11024;SDS011;22890;51.820;8.682;2023-08-31T13:58:46;2.00;;;1.67;;
11024;SDS011;22890;51.820;8.682;2023-08-31T14:01:12;3.43;;;1.90;;
11024;SDS011;22890;51.820;8.682;2023-08-31T14:03:39;3.63;;;2.37;;
11024;SDS011;22890;51.820;8.682;2023-08-31T14:06:07;2.50;;;2.17;;
11024;SDS011;22890;51.820;8.682;2023-08-31T14:08:34;3.07;;;1.93;;
11024;SDS011;22890;51.820;8.682;2023-08-31T14:11:01;3.53;;;2.10;;
11024;SDS011;22890;51.820;8.682;2023-08-31T14:13:29;4.90;;;2.50;;
11024;SDS011;22890;51.820;8.682;2023-08-31T14:15:56;4.30;;;1.33;;
11024;SDS011;22890;51.820;8.682;2023-08-31T14:18:23;1.60;;;1.20;;
11024;SDS011;22890;51.820;8.682;2023-08-31T14:20:51;2.87;;;1.40;;
11024;SDS011;22890;51.820;8.682;2023-08-31T14:23:18;2.73;;;1.30;;
11024;SDS011;22890;51.820;8.682;2023-08-31T14:25:46;0.93;;;0.87;;
11024;SDS011;22890;51.820;8.682;2023-08-31T14:28:13;1.93;;;1.00;;
11024;SDS011;22890;51.820;8.682;2023-08-31T14:30:40;2.43;;;1.47;;
11024;SDS011;22890;51.820;8.682;2023-08-31T14:33:07;2.30;;;1.20;;
11024;SDS011;22890;51.820;8.682;2023-08-31T14:35:37;2.30;;;1.33;;
11024;SDS011;22890;51.820;8.682;2023-08-31T14:38:05;1.53;;;1.27;;
11024;SDS011;22890;51.820;8.682;2023-08-31T14:40:32;2.60;;;1.30;;
11024;SDS011;22890;51.820;8.682;2023-08-31T14:43:01;1.47;;;1.30;;
11024;SDS011;22890;51.820;8.682;2023-08-31T14:45:28;2.13;;;1.20;;
11024;SDS011;22890;51.820;8.682;2023-08-31T14:47:55;1.37;;;1.27;;
11024;SDS011;22890;51.820;8.682;2023-08-31T14:50:23;1.80;;;1.40;;
11024;SDS011;22890;51.820;8.682;2023-08-31T14:52:49;1.87;;;1.53;;
11024;SDS011;22890;51.820;8.682;2023-08-31T14:55:16;1.80;;;1.03;;
11024;SDS011;22890;51.820;8.682;2023-08-31T14:57:43;1.90;;;1.33;;
11024;SDS011;22890;51.820;8.682;2023-08-31T15:00:10;1.40;;;1.30;;
11024;SDS011;22890;51.820;8.682;2023-08-31T15:02:37;1.40;;;1.30;;
11024;SDS011;22890;51.820;8.682;2023-08-31T15:05:05;3.73;;;1.30;;
11024;SDS011;22890;51.820;8.682;2023-08-31T15:07:32;0.90;;;0.90;;